Time;durP1;ratioP1;P1;durP2;ratioP2;P2;SDS_P1;SDS_P2;PMS_P1;PMS_P2;Temp;Humidity;BMP_temperature;BMP_pressure;BME280_temperature;BME280_humidity;BME280_pressure;Samples;Min_cycle;Max_cycle;Signal;HPM_P1;HPM_P2
2020/12/24 00:01:35;;;;;;;1.42;1.30;;;11.20;92.10;;;;;;5021604;28;20247;-85
2020/12/24 00:04:01;;;;;;;2.45;0.98;;;11.30;90.90;;;;;;5023830;28;20244;-90
2020/12/24 00:06:28;;;;;;;0.70;0.70;;;11.20;90.40;;;;;;5035976;28;20288;-87
2020/12/24 00:08:54;;;;;;;0.90;0.70;;;11.30;90.00;;;;;;5035895;28;20223;-88
2020/12/24 00:11:24;;;;;;;0.70;0.70;;;11.30;88.60;;;;;;5027258;28;20278;-83
2020/12/24 00:13:52;;;;;;;1.17;1.00;;;11.30;87.10;;;;;;5032691;28;20383;-83
2020/12/24 00:16:18;;;;;;;2.22;0.90;;;11.30;85.90;;;;;;5035719;28;20190;-84
2020/12/24 00:18:44;;;;;;;2.80;0.98;;;11.40;82.50;;;;;;5035992;28;20199;-83
2020/12/24 00:21:11;;;;;;;0.65;0.65;;;11.40;81.80;;;;;;5035807;28;20413;-84
2020/12/24 00:23:37;;;;;;;0.85;0.70;;;11.40;81.80;;;;;;5035911;28;20224;-88
2020/12/24 00:26:07;;;;;;;0.93;0.90;;;11.40;81.80;;;;;;5027732;28;20209;-84
2020/12/24 00:28:33;;;;;;;1.00;0.80;;;11.40;81.60;;;;;;5020507;28;20281;-84
2020/12/24 00:31:01;;;;;;;0.60;0.60;;;11.40;80.10;;;;;;5024195;28;20243;-84
2020/12/24 00:33:28;;;;;;;0.77;0.77;;;11.40;79.40;;;;;;5031352;28;20223;-83
2020/12/24 00:35:57;;;;;;;1.50;0.93;;;11.40;77.50;;;;;;5034887;28;20199;-83
2020/12/24 00:38:24;;;;;;;0.98;0.60;;;11.40;77.50;;;;;;5028068;28;20223;-83
2020/12/24 00:40:50;;;;;;;1.77;0.90;;;11.40;75.90;;;;;;5033732;28;20220;-84
2020/12/24 00:43:17;;;;;;;0.65;0.65;;;11.40;75.70;;;;;;5034559;28;20234;-83
2020/12/24 00:45:43;;;;;;;1.23;0.68;;;11.30;75.40;;;;;;5024859;28;20189;-84
2020/12/24 00:48:10;;;;;;;3.33;0.60;;;11.30;75.10;;;;;;5021435;28;20217;-84
2020/12/24 00:50:37;;;;;;;0.80;0.70;;;11.30;73.70;;;;;;5021151;28;20563;-84
2020/12/24 00:53:03;;;;;;;4.55;0.70;;;11.30;73.60;;;;;;5027890;28;20226;-82
2020/12/24 00:55:29;;;;;;;0.60;0.60;;;11.30;74.40;;;;;;5036054;28;20212;-83
2020/12/24 00:57:56;;;;;;;1.55;0.80;;;11.30;75.00;;;;;;5035514;28;20216;-82
2020/12/24 01:00:23;;;;;;;1.25;0.70;;;11.30;76.00;;;;;;5024985;28;20561;-84
2020/12/24 01:02:49;;;;;;;1.63;0.68;;;11.20;76.50;;;;;;5025987;28;20232;-86
2020/12/24 01:05:16;;;;;;;0.95;0.65;;;11.20;77.40;;;;;;5029689;28;20207;-83
2020/12/24 01:07:44;;;;;;;1.55;0.73;;;11.20;78.10;;;;;;5029190;28;20212;-85
2020/12/24 01:10:12;;;;;;;0.85;0.68;;;11.20;79.80;;;;;;5028916;28;20213;-86
2020/12/24 01:12:38;;;;;;;1.90;0.73;;;11.20;81.50;;;;;;5030589;28;20261;-84
2020/12/24 01:15:12;;;;;;;0.60;0.60;;;11.10;82.60;;;;;;5037186;28;20246;-84
2020/12/24 01:17:39;;;;;;;3.25;0.77;;;11.10;82.50;;;;;;5029616;28;20210;-85
2020/12/24 01:20:06;;;;;;;1.35;0.77;;;11.10;79.40;;;;;;5026009;28;20203;-85
2020/12/24 01:22:34;;;;;;;1.80;0.80;;;11.20;76.80;;;;;;5025455;28;20213;-83
2020/12/24 01:25:01;;;;;;;3.28;0.90;;;11.20;76.20;;;;;;5025344;28;20220;-84
2020/12/24 01:27:27;;;;;;;1.63;0.85;;;11.30;77.50;;;;;;5025105;28;20310;-83
2020/12/24 01:29:54;;;;;;;3.65;1.08;;;11.30;79.00;;;;;;5024897;28;20240;-84
2020/12/24 01:32:20;;;;;;;0.90;0.70;;;11.20;80.60;;;;;;5025853;28;20228;-83
2020/12/24 01:34:47;;;;;;;1.63;0.95;;;11.20;82.10;;;;;;5025009;28;20233;-84
2020/12/24 01:37:13;;;;;;;2.53;0.68;;;11.10;82.80;;;;;;5024564;28;20314;-83
2020/12/24 01:39:40;;;;;;;2.45;0.75;;;11.10;82.70;;;;;;5025052;28;20308;-85
2020/12/24 01:42:07;;;;;;;0.98;0.70;;;11.10;81.50;;;;;;5024554;28;20239;-83
2020/12/24 01:44:33;;;;;;;2.15;0.80;;;11.10;80.30;;;;;;5024392;28;20303;-83
2020/12/24 01:47:00;;;;;;;0.80;0.80;;;11.10;79.10;;;;;;5024665;28;20212;-83
2020/12/24 01:49:26;;;;;;;1.25;0.82;;;11.10;77.80;;;;;;5024762;28;20233;-83
2020/12/24 01:51:54;;;;;;;1.42;0.70;;;11.00;77.20;;;;;;5025567;28;20206;-84
2020/12/24 01:54:23;;;;;;;1.30;0.60;;;11.00;73.10;;;;;;5037432;28;20223;-83
2020/12/24 01:56:51;;;;;;;1.73;0.73;;;11.00;71.10;;;;;;5037974;28;20201;-82
2020/12/24 01:59:19;;;;;;;1.60;0.70;;;10.90;69.10;;;;;;5038153;28;20192;-83
2020/12/24 02:01:46;;;;;;;0.88;0.70;;;10.90;66.80;;;;;;5038139;28;20224;-82
2020/12/24 02:04:13;;;;;;;1.80;0.80;;;10.90;64.00;;;;;;5038091;28;20240;-83
2020/12/24 02:06:40;;;;;;;3.75;0.70;;;10.90;62.80;;;;;;5026876;28;20346;-83
2020/12/24 02:09:07;;;;;;;1.02;0.50;;;10.90;61.40;;;;;;5028025;28;20211;-83
2020/12/24 02:11:33;;;;;;;1.65;1.05;;;10.80;60.10;;;;;;5033976;28;20221;-82
2020/12/24 02:14:01;;;;;;;2.25;0.75;;;10.80;61.40;;;;;;5037324;28;20223;-82
2020/12/24 02:16:28;;;;;;;2.28;0.77;;;10.70;60.10;;;;;;5037809;28;20401;-82
2020/12/24 02:18:54;;;;;;;2.10;0.95;;;10.70;60.80;;;;;;5038128;28;20205;-83
2020/12/24 02:21:22;;;;;;;2.85;0.90;;;10.60;60.90;;;;;;5038134;28;20201;-82
2020/12/24 02:23:48;;;;;;;0.90;0.70;;;10.50;61.40;;;;;;5038012;28;20245;-82
2020/12/24 02:26:14;;;;;;;0.70;0.70;;;10.40;61.30;;;;;;5037395;28;20183;-83
2020/12/24 02:28:41;;;;;;;4.20;0.90;;;10.30;62.10;;;;;;5037994;28;20199;-83
2020/12/24 02:31:09;;;;;;;2.13;0.70;;;10.30;62.20;;;;;;5038053;28;20193;-83
2020/12/24 02:33:36;;;;;;;2.00;0.57;;;10.30;60.60;;;;;;5036290;28;20243;-83
2020/12/24 02:36:03;;;;;;;1.30;0.80;;;10.40;60.20;;;;;;5034752;28;20211;-83
2020/12/24 02:38:30;;;;;;;0.75;0.50;;;10.40;60.00;;;;;;5030405;28;20299;-82
2020/12/24 02:40:57;;;;;;;2.38;0.60;;;10.40;60.30;;;;;;5031343;28;20216;-84
2020/12/24 02:43:23;;;;;;;2.03;0.70;;;10.40;61.20;;;;;;5031969;28;20227;-82
2020/12/24 02:45:50;;;;;;;2.60;0.50;;;10.40;62.10;;;;;;5030410;28;20603;-83
2020/12/24 02:48:23;;;;;;;2.33;0.65;;;10.40;62.70;;;;;;5032750;28;20229;-82
2020/12/24 02:50:49;;;;;;;0.65;0.60;;;10.30;63.70;;;;;;5036609;28;20262;-82
2020/12/24 02:53:16;;;;;;;2.45;0.80;;;10.30;64.30;;;;;;5032038;28;20298;-83
2020/12/24 02:55:45;;;;;;;1.80;0.90;;;10.30;64.80;;;;;;5030890;28;20229;-83
2020/12/24 02:58:11;;;;;;;2.20;1.05;;;10.30;64.50;;;;;;5030015;28;20215;-83
2020/12/24 03:00:38;;;;;;;1.25;0.50;;;10.30;65.00;;;;;;5029386;28;20215;-83
2020/12/24 03:03:04;;;;;;;1.50;0.63;;;10.20;65.40;;;;;;5029862;28;20215;-82
2020/12/24 03:05:31;;;;;;;2.47;0.80;;;10.10;65.60;;;;;;5023339;28;20209;-82
2020/12/24 03:07:57;;;;;;;2.25;0.80;;;10.10;66.10;;;;;;5020053;28;20212;-83
2020/12/24 03:10:24;;;;;;;2.63;0.70;;;10.00;65.60;;;;;;5020646;28;20215;-83
2020/12/24 03:12:51;;;;;;;0.65;0.65;;;10.00;65.70;;;;;;5021247;28;20234;-83
2020/12/24 03:15:17;;;;;;;1.65;0.60;;;9.80;67.60;;;;;;5022186;28;20210;-81
2020/12/24 03:17:44;;;;;;;2.40;0.60;;;9.70;68.30;;;;;;5023381;28;20241;-84
2020/12/24 03:20:10;;;;;;;1.13;0.60;;;9.70;68.30;;;;;;5034113;28;20272;-82
2020/12/24 03:22:37;;;;;;;0.88;0.40;;;9.70;68.30;;;;;;5034836;28;20287;-83
2020/12/24 03:25:04;;;;;;;1.08;0.60;;;9.70;70.00;;;;;;5023757;28;20268;-84
2020/12/24 03:27:31;;;;;;;1.15;0.38;;;9.70;71.30;;;;;;5021707;28;20198;-83
2020/12/24 03:29:58;;;;;;;2.90;0.50;;;9.60;71.90;;;;;;5024267;28;20289;-83
2020/12/24 03:32:24;;;;;;;2.15;0.50;;;9.60;72.80;;;;;;5027624;28;20284;-84
2020/12/24 03:34:51;;;;;;;1.02;0.65;;;9.60;72.60;;;;;;5035296;28;20369;-84
2020/12/24 03:37:18;;;;;;;2.35;0.73;;;9.70;72.40;;;;;;5036537;28;20229;-83
2020/12/24 03:39:44;;;;;;;2.65;0.73;;;9.70;72.70;;;;;;5034078;28;20202;-83
2020/12/24 03:42:11;;;;;;;1.80;0.75;;;9.70;75.30;;;;;;5034358;28;20217;-84
2020/12/24 03:44:37;;;;;;;1.65;1.08;;;9.60;76.70;;;;;;5033351;28;20242;-84
2020/12/24 03:47:05;;;;;;;1.13;0.50;;;9.50;76.80;;;;;;5034416;28;20202;-83
2020/12/24 03:49:31;;;;;;;3.25;0.60;;;9.50;77.30;;;;;;5035705;28;20275;-83
2020/12/24 03:51:58;;;;;;;1.80;0.50;;;9.40;76.80;;;;;;5030233;28;20234;-83
2020/12/24 03:54:24;;;;;;;3.97;1.85;;;9.20;78.10;;;;;;5022160;28;20230;-84
2020/12/24 03:56:51;;;;;;;1.50;0.40;;;9.30;77.90;;;;;;5023504;28;20218;-83
2020/12/24 03:59:17;;;;;;;2.42;0.70;;;9.30;77.20;;;;;;5022914;28;20275;-83
2020/12/24 04:01:43;;;;;;;2.83;0.65;;;9.40;77.80;;;;;;5021333;28;20216;-83
2020/12/24 04:04:11;;;;;;;1.38;0.77;;;9.40;78.80;;;;;;5021623;28;20238;-83
2020/12/24 04:06:37;;;;;;;1.15;0.70;;;9.40;80.00;;;;;;5021645;28;20311;-84
2020/12/24 04:09:03;;;;;;;3.08;1.08;;;9.30;80.50;;;;;;5023450;28;20220;-83
2020/12/24 04:11:30;;;;;;;3.05;1.02;;;9.30;80.80;;;;;;5028462;28;20306;-83
2020/12/24 04:13:57;;;;;;;1.60;0.85;;;9.20;79.90;;;;;;5033185;28;20260;-83
2020/12/24 04:16:24;;;;;;;2.13;0.98;;;9.20;80.30;;;;;;5030639;28;20217;-84
2020/12/24 04:18:51;;;;;;;3.42;0.63;;;9.30;80.40;;;;;;5029546;28;20208;-83
2020/12/24 04:21:19;;;;;;;1.48;0.80;;;9.20;80.60;;;;;;5033041;28;20222;-83
2020/12/24 04:23:46;;;;;;;1.00;0.65;;;9.20;80.80;;;;;;5034909;28;20261;-83
2020/12/24 04:26:18;;;;;;;4.20;0.70;;;9.20;80.40;;;;;;5033191;28;20294;-83
2020/12/24 04:28:45;;;;;;;1.98;0.70;;;9.30;78.90;;;;;;5036313;28;20177;-83
2020/12/24 04:31:11;;;;;;;1.30;0.70;;;9.30;78.10;;;;;;5036210;28;20235;-83
2020/12/24 04:33:38;;;;;;;1.25;0.68;;;9.30;76.90;;;;;;5035847;28;20287;-82
2020/12/24 04:36:05;;;;;;;1.70;0.50;;;9.20;76.60;;;;;;5035819;28;20245;-83
2020/12/24 04:38:32;;;;;;;0.60;0.45;;;9.10;76.50;;;;;;5037704;28;20235;-83
2020/12/24 04:40:59;;;;;;;2.67;0.60;;;9.10;76.50;;;;;;5039282;28;20212;-83
2020/12/24 04:43:27;;;;;;;1.25;0.50;;;9.10;75.70;;;;;;5039749;28;20280;-87
2020/12/24 04:45:54;;;;;;;1.95;0.77;;;9.00;75.00;;;;;;5039864;28;20241;-87
2020/12/24 04:48:20;;;;;;;1.63;0.60;;;9.00;75.30;;;;;;5039689;28;20243;-88
2020/12/24 04:50:49;;;;;;;1.25;0.50;;;9.00;74.70;;;;;;5039735;28;20229;-85
2020/12/24 04:53:16;;;;;;;1.10;0.50;;;9.00;75.10;;;;;;5039833;28;20265;-85
2020/12/24 04:55:43;;;;;;;0.85;0.65;;;9.00;74.60;;;;;;5039400;28;20222;-85
2020/12/24 04:58:10;;;;;;;1.98;0.88;;;9.00;75.00;;;;;;5033595;28;20210;-84
2020/12/24 05:00:37;;;;;;;3.00;0.40;;;9.00;74.90;;;;;;5024695;28;20234;-84
2020/12/24 05:03:05;;;;;;;4.75;0.70;;;9.10;74.00;;;;;;5027035;28;20210;-85
2020/12/24 05:05:32;;;;;;;2.15;0.75;;;9.20;72.20;;;;;;5022636;28;20203;-85
2020/12/24 05:08:01;;;;;;;2.38;0.70;;;9.30;71.60;;;;;;5023128;28;20202;-82
2020/12/24 05:10:27;;;;;;;1.42;0.50;;;9.30;71.30;;;;;;5021873;28;20214;-85
2020/12/24 05:12:55;;;;;;;0.60;0.60;;;9.30;70.00;;;;;;5022158;28;20612;-84
2020/12/24 05:15:28;;;;;;;0.88;0.45;;;9.40;68.80;;;;;;5022236;28;20265;-83
2020/12/24 05:18:12;;;;;;;1.48;0.90;;;9.40;68.00;;;;;;5022077;28;20571;-83
2020/12/24 05:20:39;;;;;;;2.20;0.93;;;9.40;68.00;;;;;;5022336;28;20218;-84
2020/12/24 05:23:11;;;;;;;1.58;0.60;;;9.50;66.90;;;;;;5021607;28;20733;-84
2020/12/24 05:25:37;;;;;;;3.13;0.57;;;9.50;66.50;;;;;;5021954;28;20505;-83
2020/12/24 05:28:05;;;;;;;1.83;0.82;;;9.50;64.90;;;;;;5030801;28;20191;-87
2020/12/24 05:30:33;;;;;;;0.98;0.80;;;9.50;64.50;;;;;;5039638;28;20195;-88
2020/12/24 05:33:00;;;;;;;3.28;0.82;;;9.60;63.80;;;;;;5039390;28;20223;-87
2020/12/24 05:35:28;;;;;;;2.85;0.75;;;9.70;63.00;;;;;;5028011;28;20242;-84
2020/12/24 05:37:55;;;;;;;3.45;0.70;;;9.70;61.50;;;;;;5022747;28;20301;-84
2020/12/24 05:40:24;;;;;;;1.63;0.82;;;9.70;60.00;;;;;;5024186;28;20234;-84
2020/12/24 05:42:53;;;;;;;5.65;0.82;;;9.80;59.50;;;;;;5025171;28;20210;-84
2020/12/24 05:45:22;;;;;;;2.58;0.93;;;9.70;59.40;;;;;;5024173;28;20225;-84
2020/12/24 05:48:07;;;;;;;7.25;1.17;;;9.70;58.80;;;;;;5024515;28;20214;-83
2020/12/24 05:50:34;;;;;;;4.70;0.85;;;9.70;59.00;;;;;;5025025;28;20206;-84
2020/12/24 05:53:05;;;;;;;2.35;0.90;;;9.70;57.60;;;;;;5024591;28;20269;-84
2020/12/24 05:55:31;;;;;;;2.70;0.77;;;9.70;58.20;;;;;;5025916;28;20284;-85
2020/12/24 05:57:59;;;;;;;1.73;0.70;;;9.70;57.70;;;;;;5024817;28;20253;-84
2020/12/24 06:00:32;;;;;;;2.25;0.80;;;9.70;57.80;;;;;;5031895;28;20218;-85
2020/12/24 06:03:13;;;;;;;2.10;1.00;;;9.80;57.00;;;;;;5027967;28;20213;-83
2020/12/24 06:05:57;;;;;;;3.70;0.80;;;9.90;56.50;;;;;;5027699;28;20214;-85
2020/12/24 06:08:26;;;;;;;4.32;0.80;;;9.90;56.50;;;;;;5027230;28;20292;-83
2020/12/24 06:11:01;;;;;;;2.83;1.00;;;9.90;57.30;;;;;;5027363;28;20215;-84
2020/12/24 06:13:38;;;;;;;2.63;0.77;;;9.90;57.50;;;;;;5033141;28;20255;-84
2020/12/24 06:16:07;;;;;;;2.40;0.75;;;9.80;58.90;;;;;;5028938;28;20243;-85
2020/12/24 06:18:36;;;;;;;4.03;1.15;;;9.70;59.40;;;;;;5031281;28;20207;-85
2020/12/24 06:21:05;;;;;;;1.13;0.60;;;9.60;60.60;;;;;;5032557;28;20278;-84
2020/12/24 06:23:36;;;;;;;3.15;1.25;;;9.50;60.50;;;;;;5025599;28;20233;-85
2020/12/24 06:26:06;;;;;;;0.95;0.80;;;9.40;60.90;;;;;;5025037;28;20214;-85
2020/12/24 06:28:34;;;;;;;1.98;0.93;;;9.40;62.10;;;;;;5030503;28;20210;-84
2020/12/24 06:31:02;;;;;;;1.85;0.93;;;9.40;63.20;;;;;;5029739;28;20219;-84
2020/12/24 06:33:30;;;;;;;6.05;0.90;;;9.30;63.20;;;;;;5021681;28;20608;-86
2020/12/24 06:35:58;;;;;;;2.28;0.55;;;9.30;62.70;;;;;;5023357;28;20228;-86
2020/12/24 06:38:44;;;;;;;2.60;0.80;;;9.20;63.40;;;;;;5030708;28;20287;-85
2020/12/24 06:41:22;;;;;;;1.95;0.75;;;9.10;64.90;;;;;;5036364;28;20234;-88
2020/12/24 06:43:49;;;;;;;4.80;1.15;;;9.10;65.50;;;;;;5032709;28;20289;-86
2020/12/24 06:46:16;;;;;;;2.15;0.85;;;9.00;65.70;;;;;;5032855;28;20204;-87
2020/12/24 06:48:59;;;;;;;1.30;0.63;;;9.00;67.60;;;;;;5033979;28;20222;-86
2020/12/24 06:51:26;;;;;;;4.53;0.90;;;8.90;67.60;;;;;;5035525;28;20208;-86
2020/12/24 06:53:52;;;;;;;4.10;0.60;;;8.80;66.40;;;;;;5025021;28;20722;-84
2020/12/24 06:56:26;;;;;;;5.25;1.10;;;8.80;66.90;;;;;;5034201;28;20407;-87
2020/12/24 06:58:55;;;;;;;3.78;0.95;;;8.80;67.50;;;;;;5037161;28;20218;-88
2020/12/24 07:01:23;;;;;;;1.02;0.55;;;8.80;66.60;;;;;;5036275;28;20186;-86
2020/12/24 07:03:52;;;;;;;6.70;1.10;;;8.80;67.50;;;;;;5037907;28;20277;-89
2020/12/24 07:06:51;;;;;;;3.25;0.70;;;8.80;67.50;;;;;;5037842;28;20205;-89
2020/12/24 07:09:48;;;;;;;3.08;0.73;;;8.80;67.60;;;;;;5037742;28;20191;-87
2020/12/24 07:12:35;;;;;;;2.05;0.98;;;8.80;68.00;;;;;;4977175;28;20205;-87
2020/12/24 07:15:24;;;;;;;3.20;0.85;;;8.70;68.90;;;;;;5031392;28;20596;-86
2020/12/24 07:17:55;;;;;;;6.13;1.20;;;8.70;70.00;;;;;;5037106;28;20302;-88
2020/12/24 07:20:25;;;;;;;0.60;0.50;;;8.60;70.20;;;;;;5037270;28;20192;-86
2020/12/24 07:22:55;;;;;;;3.58;0.90;;;8.60;71.40;;;;;;5037016;28;20186;-90
2020/12/24 07:25:22;;;;;;;5.15;0.77;;;8.50;71.90;;;;;;5037238;28;20208;-88
2020/12/24 07:27:54;;;;;;;3.15;1.20;;;8.40;72.60;;;;;;5036688;28;20274;-89
2020/12/24 07:30:24;;;;;;;4.93;0.93;;;8.40;73.70;;;;;;5036287;28;20193;-87
2020/12/24 07:32:58;;;;;;;2.88;1.50;;;8.40;75.90;;;;;;5036481;28;20211;-85
2020/12/24 07:35:26;;;;;;;3.90;0.98;;;8.30;78.30;;;;;;5036137;28;20220;-86
2020/12/24 07:37:52;;;;;;;3.75;0.95;;;8.30;78.30;;;;;;5036302;28;20265;-87
2020/12/24 07:40:19;;;;;;;4.18;1.38;;;8.20;79.10;;;;;;5035501;28;20245;-87
2020/12/24 07:42:46;;;;;;;3.38;0.80;;;8.30;80.00;;;;;;5035665;28;20209;-84
2020/12/24 07:45:15;;;;;;;2.95;0.82;;;8.30;80.20;;;;;;5035420;28;20264;-87
2020/12/24 07:47:46;;;;;;;5.05;0.80;;;8.20;80.40;;;;;;5034946;28;20212;-87
2020/12/24 07:50:12;;;;;;;4.25;1.15;;;8.20;81.40;;;;;;5035372;28;20231;-87
2020/12/24 07:52:41;;;;;;;6.28;0.68;;;8.10;82.00;;;;;;5035559;28;20218;-89
2020/12/24 07:55:11;;;;;;;4.50;0.90;;;8.10;81.60;;;;;;5034723;28;20286;-86
2020/12/24 07:57:38;;;;;;;5.43;2.00;;;8.10;82.30;;;;;;5034762;28;20215;-87
2020/12/24 08:00:05;;;;;;;8.43;1.25;;;8.10;84.00;;;;;;5034553;28;20216;-86
2020/12/24 08:02:33;;;;;;;4.38;1.00;;;8.10;84.00;;;;;;5034087;28;20233;-86
2020/12/24 08:04:59;;;;;;;3.25;0.90;;;8.00;84.00;;;;;;5034158;28;20282;-85
2020/12/24 08:07:26;;;;;;;6.88;2.25;;;8.00;84.00;;;;;;5034537;28;20206;-86
2020/12/24 08:09:53;;;;;;;2.80;0.93;;;8.00;84.70;;;;;;5034801;28;20202;-87
2020/12/24 08:12:24;;;;;;;2.40;1.10;;;7.90;84.70;;;;;;5034178;28;20208;-87
2020/12/24 08:14:51;;;;;;;4.35;0.80;;;7.90;86.10;;;;;;5031699;28;20335;-85
2020/12/24 08:17:30;;;;;;;6.53;1.10;;;7.90;87.10;;;;;;5028767;28;20214;-85
2020/12/24 08:20:06;;;;;;;3.60;1.20;;;7.90;87.90;;;;;;5027857;28;20209;-84
2020/12/24 08:22:41;;;;;;;2.85;0.80;;;7.90;88.20;;;;;;5027512;28;20218;-85
2020/12/24 08:25:09;;;;;;;3.53;0.90;;;7.80;88.80;;;;;;5031451;28;20294;-86
2020/12/24 08:27:35;;;;;;;8.27;2.00;;;7.90;89.80;;;;;;5032702;28;20234;-85
2020/12/24 08:30:05;;;;;;;4.65;1.10;;;7.90;90.20;;;;;;5029618;28;20282;-86
2020/12/24 08:32:32;;;;;;;3.25;0.98;;;7.90;90.80;;;;;;5036581;28;20270;-87
2020/12/24 08:35:09;;;;;;;4.32;1.45;;;7.90;90.90;;;;;;5036255;28;20225;-84
2020/12/24 08:37:36;;;;;;;4.55;1.00;;;7.90;90.90;;;;;;5032906;28;20233;-85
2020/12/24 08:40:19;;;;;;;4.72;1.40;;;7.80;90.90;;;;;;5033001;28;20211;-87
2020/12/24 08:42:47;;;;;;;13.55;1.70;;;7.80;91.30;;;;;;5036567;28;20230;-89
2020/12/24 08:45:14;;;;;;;2.20;0.95;;;7.90;91.70;;;;;;5036578;28;20229;-91
2020/12/24 08:47:41;;;;;;;3.28;2.20;;;7.90;91.90;;;;;;5036402;28;20253;-91
2020/12/24 08:50:08;;;;;;;7.28;1.40;;;7.90;92.10;;;;;;5036776;28;20225;-88
2020/12/24 08:52:43;;;;;;;6.35;1.05;;;7.90;92.00;;;;;;5036696;28;20190;-90
2020/12/24 08:55:10;;;;;;;9.60;1.77;;;7.80;92.50;;;;;;5018573;28;20388;-85
2020/12/24 08:57:42;;;;;;;4.65;1.48;;;7.80;92.90;;;;;;5022223;28;20208;-85
2020/12/24 09:00:15;;;;;;;4.50;1.77;;;7.80;93.30;;;;;;5028628;28;20213;-84
2020/12/24 09:02:42;;;;;;;4.25;1.10;;;7.80;93.70;;;;;;5028061;28;20221;-84
2020/12/24 09:05:08;;;;;;;6.35;1.83;;;7.80;93.60;;;;;;5025842;28;20240;-85
2020/12/24 09:07:37;;;;;;;3.78;1.10;;;7.80;93.70;;;;;;5022471;28;20216;-85
2020/12/24 09:10:08;;;;;;;2.88;1.10;;;7.80;93.80;;;;;;5024501;28;20280;-85
2020/12/24 09:12:35;;;;;;;7.00;1.98;;;7.80;93.60;;;;;;5023349;28;20309;-85
2020/12/24 09:15:06;;;;;;;2.95;1.15;;;7.80;94.00;;;;;;5020347;28;20361;-84
2020/12/24 09:17:32;;;;;;;8.27;1.88;;;7.90;94.40;;;;;;5029101;28;20278;-89
2020/12/24 09:20:21;;;;;;;4.15;1.27;;;7.90;94.50;;;;;;5033936;28;20276;-88
2020/12/24 09:22:50;;;;;;;5.18;1.40;;;7.90;94.50;;;;;;5035778;28;20207;-88
2020/12/24 09:25:31;;;;;;;3.08;1.30;;;7.90;94.50;;;;;;5038710;28;20523;-89
2020/12/24 09:27:58;;;;;;;7.07;2.22;;;7.90;94.10;;;;;;5039679;28;20198;-89
2020/12/24 09:30:26;;;;;;;4.22;1.48;;;7.90;94.50;;;;;;5039639;28;20209;-90
2020/12/24 09:32:54;;;;;;;8.73;1.65;;;7.90;94.50;;;;;;5039454;28;20210;-88
2020/12/24 09:35:22;;;;;;;5.00;1.38;;;7.90;94.50;;;;;;5039435;28;20194;-88
2020/12/24 09:37:48;;;;;;;5.32;1.10;;;7.90;94.80;;;;;;5039370;28;20194;-88
2020/12/24 09:40:15;;;;;;;5.07;1.45;;;7.90;94.50;;;;;;5039124;28;20195;-86
2020/12/24 09:42:42;;;;;;;6.53;1.30;;;7.90;94.50;;;;;;5039326;28;20216;-87
2020/12/24 09:45:08;;;;;;;5.68;1.50;;;7.90;94.70;;;;;;5037156;28;20627;-86
2020/12/24 09:47:36;;;;;;;8.25;2.20;;;7.90;94.70;;;;;;5029107;28;20301;-84
2020/12/24 09:50:04;;;;;;;3.22;1.15;;;7.90;95.20;;;;;;5022587;28;20265;-85
2020/12/24 09:52:31;;;;;;;4.28;1.40;;;7.90;95.00;;;;;;5022456;28;20288;-84
2020/12/24 09:54:57;;;;;;;2.80;1.48;;;8.00;95.40;;;;;;5027222;28;20599;-87
2020/12/24 09:57:24;;;;;;;3.15;1.50;;;8.00;95.30;;;;;;5035427;28;20214;-85
2020/12/24 09:59:51;;;;;;;5.35;1.55;;;8.10;95.50;;;;;;5037285;28;20213;-87
2020/12/24 10:02:17;;;;;;;5.80;1.75;;;8.20;95.20;;;;;;5039120;28;20189;-88
2020/12/24 10:04:45;;;;;;;6.28;1.27;;;8.30;94.70;;;;;;5038100;28;20222;-89
2020/12/24 10:07:12;;;;;;;4.30;1.45;;;8.30;93.70;;;;;;5039016;28;20214;-90
2020/12/24 10:09:39;;;;;;;5.07;1.35;;;8.40;93.00;;;;;;5038793;28;20209;-88
2020/12/24 10:12:06;;;;;;;3.38;1.77;;;8.40;92.40;;;;;;5029383;28;20677;-84
2020/12/24 10:14:32;;;;;;;2.50;0.93;;;8.50;91.50;;;;;;5025250;28;20234;-85
2020/12/24 10:17:04;;;;;;;2.10;0.90;;;8.60;91.10;;;;;;5023763;28;20270;-84
2020/12/24 10:19:30;;;;;;;4.20;1.60;;;8.70;90.10;;;;;;5022230;28;20287;-85
2020/12/24 10:21:58;;;;;;;5.13;1.55;;;8.80;90.00;;;;;;5022423;28;20280;-83
2020/12/24 10:24:25;;;;;;;3.65;0.95;;;8.90;88.90;;;;;;5022804;28;20227;-83
2020/12/24 10:26:54;;;;;;;3.03;1.42;;;8.90;86.30;;;;;;5024981;28;20211;-84
2020/12/24 10:29:21;;;;;;;2.17;1.10;;;8.80;84.60;;;;;;5027453;28;20299;-84
2020/12/24 10:31:48;;;;;;;2.50;1.30;;;9.00;84.80;;;;;;5033441;28;20203;-85
2020/12/24 10:34:15;;;;;;;2.13;1.08;;;9.00;84.80;;;;;;5038309;28;20226;-89
2020/12/24 10:36:42;;;;;;;1.58;1.08;;;8.80;83.80;;;;;;5037457;28;20213;-88
2020/12/24 10:39:10;;;;;;;2.28;1.00;;;8.80;84.60;;;;;;5031895;28;20215;-85
2020/12/24 10:41:38;;;;;;;2.90;1.00;;;8.80;84.60;;;;;;5028030;28;20211;-86
2020/12/24 10:44:05;;;;;;;3.40;1.17;;;8.90;84.70;;;;;;5035368;28;20243;-85
2020/12/24 10:46:35;;;;;;;1.63;0.73;;;9.00;83.40;;;;;;5036269;28;20205;-84
2020/12/24 10:49:02;;;;;;;1.15;0.90;;;9.10;80.70;;;;;;5037904;28;20179;-84
2020/12/24 10:51:29;;;;;;;2.05;1.27;;;9.10;79.90;;;;;;5037891;28;20513;-84
2020/12/24 10:53:55;;;;;;;3.38;0.90;;;9.20;78.40;;;;;;5037220;28;20243;-83
2020/12/24 10:56:22;;;;;;;1.58;0.88;;;9.30;77.70;;;;;;5037097;28;20264;-84
2020/12/24 10:58:49;;;;;;;4.55;1.73;;;9.40;76.70;;;;;;5037180;28;20285;-83
2020/12/24 11:01:17;;;;;;;0.70;0.60;;;9.40;75.60;;;;;;5037207;28;20204;-84
2020/12/24 11:03:44;;;;;;;4.18;1.00;;;9.40;74.20;;;;;;5036511;28;20236;-84
2020/12/24 11:06:17;;;;;;;2.63;0.80;;;9.50;75.00;;;;;;5036166;28;20194;-85
2020/12/24 11:08:44;;;;;;;1.13;1.00;;;9.50;73.30;;;;;;5036670;28;20219;-86
2020/12/24 11:11:10;;;;;;;2.47;0.95;;;9.50;71.80;;;;;;5031961;28;20206;-83
2020/12/24 11:13:38;;;;;;;0.80;0.80;;;9.50;71.50;;;;;;5031864;28;20239;-84
2020/12/24 11:16:05;;;;;;;3.47;0.80;;;9.60;71.00;;;;;;5021768;28;20260;-85
2020/12/24 11:18:32;;;;;;;2.35;0.90;;;9.70;70.20;;;;;;5024047;28;20215;-86
2020/12/24 11:20:58;;;;;;;1.65;0.93;;;9.80;69.80;;;;;;5027666;28;20214;-85
2020/12/24 11:23:25;;;;;;;0.80;0.80;;;9.90;68.50;;;;;;5034283;28;20244;-84
2020/12/24 11:25:52;;;;;;;2.22;0.85;;;10.00;68.30;;;;;;5029877;28;20362;-83
2020/12/24 11:28:18;;;;;;;1.48;0.65;;;10.00;67.40;;;;;;5035788;28;20190;-85
2020/12/24 11:30:49;;;;;;;4.45;0.60;;;10.00;66.30;;;;;;5036947;28;20221;-84
2020/12/24 11:33:15;;;;;;;3.72;1.02;;;9.90;66.80;;;;;;5036640;28;20259;-86
2020/12/24 11:35:42;;;;;;;3.53;1.05;;;9.90;66.90;;;;;;5036583;28;20213;-85
2020/12/24 11:38:09;;;;;;;0.82;0.70;;;9.90;67.00;;;;;;5036753;28;20258;-87
2020/12/24 11:40:35;;;;;;;1.90;0.70;;;9.90;67.00;;;;;;5036831;28;20207;-85
2020/12/24 11:43:02;;;;;;;1.38;0.68;;;9.80;67.00;;;;;;5035328;28;20211;-82
2020/12/24 11:45:28;;;;;;;3.15;0.65;;;9.80;68.40;;;;;;5035615;28;20262;-86
2020/12/24 11:47:56;;;;;;;1.10;0.80;;;9.70;68.30;;;;;;5036036;28;20265;-84
2020/12/24 11:50:22;;;;;;;2.05;0.65;;;9.70;69.60;;;;;;5036021;28;20205;-87
2020/12/24 11:52:48;;;;;;;1.40;0.80;;;9.50;69.80;;;;;;5034730;28;20212;-82
2020/12/24 11:55:15;;;;;;;1.20;0.60;;;9.40;71.80;;;;;;5035809;28;20233;-85
2020/12/24 11:57:42;;;;;;;1.67;0.95;;;9.50;70.30;;;;;;5033480;28;20237;-87
2020/12/24 12:00:10;;;;;;;5.05;0.98;;;9.50;70.40;;;;;;5028661;28;20218;-82
2020/12/24 12:02:37;;;;;;;1.83;0.90;;;9.50;71.10;;;;;;5019750;28;20226;-83
2020/12/24 12:05:04;;;;;;;1.60;0.70;;;9.50;70.40;;;;;;5022694;28;20303;-83
2020/12/24 12:07:31;;;;;;;0.77;0.65;;;9.50;70.00;;;;;;5019159;28;20282;-85
2020/12/24 12:09:58;;;;;;;1.75;0.85;;;9.40;69.90;;;;;;5019247;28;20212;-82
2020/12/24 12:12:24;;;;;;;1.70;0.98;;;9.50;70.30;;;;;;5018868;28;20241;-83
2020/12/24 12:14:51;;;;;;;1.55;0.73;;;9.60;70.00;;;;;;5024205;28;20291;-83
2020/12/24 12:17:19;;;;;;;2.10;0.80;;;9.60;69.40;;;;;;5031054;28;20229;-85
2020/12/24 12:19:45;;;;;;;1.67;0.70;;;9.50;69.10;;;;;;5026732;28;20236;-84
2020/12/24 12:22:13;;;;;;;3.97;0.80;;;9.60;70.90;;;;;;5018287;28;20301;-84
2020/12/24 12:24:39;;;;;;;2.25;1.20;;;9.40;70.50;;;;;;5026641;28;20222;-85
2020/12/24 12:27:07;;;;;;;3.35;0.77;;;9.20;73.90;;;;;;5022326;28;20673;-85
2020/12/24 12:29:33;;;;;;;0.90;0.60;;;9.10;76.20;;;;;;5022644;28;20210;-85
2020/12/24 12:32:00;;;;;;;1.50;0.80;;;9.00;77.20;;;;;;5029307;28;20234;-83
2020/12/24 12:34:27;;;;;;;2.47;0.70;;;8.80;77.30;;;;;;5031237;28;20230;-86
2020/12/24 12:36:54;;;;;;;1.05;0.75;;;8.80;77.80;;;;;;5028934;28;20237;-83
2020/12/24 12:39:22;;;;;;;2.25;0.60;;;8.80;79.40;;;;;;5025369;28;20241;-85
2020/12/24 12:41:49;;;;;;;1.35;0.80;;;8.80;79.90;;;;;;5026415;28;20205;-85
2020/12/24 12:44:15;;;;;;;1.70;1.10;;;8.80;78.20;;;;;;5025959;28;20232;-83
2020/12/24 12:46:42;;;;;;;2.83;0.93;;;8.70;79.10;;;;;;5020773;28;20221;-86
2020/12/24 12:49:09;;;;;;;0.88;0.80;;;8.70;81.20;;;;;;5021720;28;20211;-85
2020/12/24 12:51:36;;;;;;;2.90;0.90;;;8.70;83.80;;;;;;5025779;28;20230;-86
2020/12/24 12:54:03;;;;;;;1.83;0.93;;;8.60;85.10;;;;;;5035529;28;20252;-88
2020/12/24 12:56:31;;;;;;;2.42;0.93;;;8.50;88.20;;;;;;5035616;28;20192;-88
2020/12/24 12:58:58;;;;;;;1.30;0.90;;;8.40;90.60;;;;;;5037108;28;20194;-87
2020/12/24 13:01:24;;;;;;;0.98;0.80;;;8.30;92.00;;;;;;5039688;28;20238;-88